Main page
METAR-TAF:

METAR-TAF

Airports :

Durham, England

Durham Tees Valley Airport

latitude: 54-31N, longitude: 001-25W, elevation: 37 m

Current weather observation

The report was made 6 hours and 52 minutes ago, at 20:50 UTC
Wind 4 kt from the South/Southeast
Temperature 8°C
Humidity 76%
Pressure 1015 hPa
Visibility 10 km or more
no clouds below 1500 m and no cumulonimbus

METAR: EGNV 282050Z 15004KT CAVOK 08/04 Q1015

Time: 04:42 (03:42 UTC)

Forecast

The report was made 10 hours and 43 minutes ago, at 16:59 UTC
Forecast valid from 28 at 18 UTC to 28 at 21 UTC
Wind 5 kt from the Southeast
Visibility 10 km or more
Few clouds at a height of 2500 ft
Probability 30% :
Temporary
from 28 at 18 UTC to 28 at 21 UTC
Visibility: 7000 m
rain showers

TAF: EGNV 281659Z 2818/2821 13005KT 9999 FEW025 PROB30 TEMPO 2818/2821 7000 SHRA

Weather observations and forecasts of more than 4000 airports (METAR and TAF reports).

The available stations are represented by yellow and red dots on the map.

Hover mouse over dot to see the name of the station.

Then click to see weather observations and forecasts.

To change the map : click on the green buttons with a black cross to zoom in, on the green button with a dash to zoom out, or on the green arrows for adjacent maps.


METAR-TAF: